Startpagina
METAR-TAF:

METAR-TAF

Vliegvelden :

Leh, India

breedte: 34-08-09N, lengte: 077-32-47E, hoogte: 3256 m

Actueel weer

Dit bericht is 6 uur en het 43 minuten geleden gemaakt, om 11:30 UTC
Wind 8 kt uit het westnoordwesten
Temperatuur 4°C
Vochtigheid 32%
Druk 1025 hPa
Zicht: 6000 m
Weinig wolken op 6000 ft
Verspreide wolken op 10000 ft

METAR: VILH 181130Z 29008KT 6000 FEW060 SCT100 04/M11 Q1025 NOSIG RMK E,W-AC REST-PC

Tijdstip: 23:43 (18:13 UTC)


TAF: ontbreekt

Waarnemingen en weersverwachtingen van meer dan 4000 vliegvelden (METAR en TAF).

De beschikbare stations zijn de gele en rode punten op de kaart.

Ga met uw muis naar het station om de naam te zien.

Klik dan om waarnemingen en weersverwachtingen te zien.

kaart wijzigen: klik op de groene knoppen met een zwart kruis om in te zoomen, op de groene knop met een streepje om uit te zoomen of op de groene pijlen voor aangrenzende kaarten.


METAR-TAF: